This is the latest recevied weather packets stored in our database for station/object N3DOU-1. If no packets are shown the sender has not sent any weather packets the latest 1 day(s).
| Time | Temp. | Humidity | Pressure | Rain* | Wind** | Luminosity | Snow |
|---|---|---|---|---|---|---|---|
| 1836274413 | 20.56° C | 84% | 1018.6 hPa | 0 mm | 0 m/s | - | - |
| 1778047884 | 20.56° C | 69% | 1010.1 hPa | 0 mm | 1.34 m/s, 193° | - | - |
| 1778046983 | 20.56° C | 69% | 1010.1 hPa | 0 mm | 2.68 m/s, 197° | - | - |
| 1778046086 | 20.56° C | 68% | 1010.1 hPa | 0 mm | 2.68 m/s, 207° | - | - |
| 1778045184 | 20.56° C | 68% | 1010.3 hPa | 0 mm | 1.34 m/s, 199° | - | - |
| 1778044284 | 20° C | 68% | 1010.3 hPa | 0 mm | 2.24 m/s, 188° | - | - |
| 1778043383 | 19.44° C | 70% | 1010.5 hPa | 0 mm | 0.45 m/s, 230° | - | - |
| 1778042484 | 19.44° C | 70% | 1010.6 hPa | 0 mm | 0.45 m/s, 84° | - | - |
| 1778041584 | 18.89° C | 70% | 1010.6 hPa | 0 mm | 0 m/s | - | - |
| 1778040686 | 18.89° C | 70% | 1010.6 hPa | 0 mm | 0 m/s | - | - |
| 1778039784 | 19.44° C | 68% | 1010.7 hPa | 0 mm | 0 m/s | - | - |
| 1778038884 | 19.44° C | 68% | 1010.5 hPa | 0 mm | 0 m/s | - | - |
| 1778037984 | 19.44° C | 68% | 1010.4 hPa | 0 mm | 0 m/s | - | - |
| 1778037084 | 20° C | 66% | 1010.5 hPa | 0 mm | 0 m/s | - | - |
| 1778036185 | 20° C | 65% | 1010.6 hPa | 0 mm | 0 m/s | - | - |
| 1778035284 | 20.56° C | 64% | 1010.8 hPa | 0 mm | 0.45 m/s, 184° | - | - |
| 1778034383 | 20.56° C | 62% | 1010.8 hPa | 0 mm | 0.45 m/s, 200° | - | - |
| 1778033486 | 20.56° C | 64% | 1010.7 hPa | 0 mm | 0.45 m/s, 194° | - | - |
| 1778032583 | 20.56° C | 64% | 1010.6 hPa | 0 mm | 0 m/s | - | - |
| 1778031684 | 20.56° C | 64% | 1010.3 hPa | 0 mm | 0.45 m/s, 254° | - | - |
| 1778030784 | 20.56° C | 63% | 1010.2 hPa | 0 mm | 0.45 m/s, 283° | - | - |
| 1778029884 | 21.11° C | 61% | 1009.9 hPa | 0 mm | 0 m/s | - | - |
| 1778028984 | 21.11° C | 60% | 1009.8 hPa | 0 mm | 0 m/s | - | - |
| 1778028084 | 21.67° C | 59% | 1009.7 hPa | 0 mm | 0 m/s | - | - |
| 1778027183 | 22.22° C | 57% | 1009.6 hPa | 0 mm | 0 m/s | - | - |
* Rain latest hour (hover to see other rain measurements)
** Current wind speed in m/s (hover to see current wind gust speed)